createdAt,value
2023-05-01T00:00:26.410Z,6.66
2023-05-01T00:01:26.425Z,6.72
2023-05-01T00:02:26.469Z,6.66
2023-05-01T00:03:26.559Z,6.57
2023-05-01T00:04:26.491Z,6.54
2023-05-01T00:05:26.382Z,6.63
2023-05-01T00:06:26.437Z,6.52
2023-05-01T00:07:26.353Z,6.51
2023-05-01T00:08:28.055Z,6.63
2023-05-01T00:09:26.394Z,6.66
2023-05-01T00:10:26.336Z,6.60
2023-05-01T00:11:26.332Z,6.63
2023-05-01T00:12:26.334Z,6.54
2023-05-01T00:13:27.039Z,6.63
2023-05-01T00:14:26.332Z,6.51
2023-05-01T00:15:26.300Z,6.59
2023-05-01T00:16:26.324Z,6.60
2023-05-01T00:17:26.460Z,6.52
2023-05-01T00:18:26.304Z,6.56
2023-05-01T00:19:26.293Z,6.56
2023-05-01T00:20:26.277Z,6.56
2023-05-01T00:22:26.205Z,6.59
2023-05-01T00:23:26.224Z,6.52
2023-05-01T00:24:27.270Z,6.51
2023-05-01T00:25:27.255Z,6.62
2023-05-01T00:26:27.254Z,6.51
2023-05-01T00:27:27.256Z,6.63
2023-05-01T00:28:27.290Z,6.62
2023-05-01T00:29:27.233Z,6.67
2023-05-01T00:30:27.224Z,6.56
2023-05-01T00:31:27.223Z,6.52
2023-05-01T00:32:27.238Z,6.59
2023-05-01T00:33:27.203Z,6.54
2023-05-01T00:34:27.192Z,6.57
2023-05-01T00:35:27.206Z,6.49
2023-05-01T00:36:27.184Z,6.45
2023-05-01T00:37:27.184Z,6.46
2023-05-01T00:38:27.156Z,6.44
2023-05-01T00:39:27.169Z,6.45
2023-05-01T00:40:27.137Z,6.35
2023-05-01T00:41:27.144Z,6.38
2023-05-01T00:42:27.152Z,6.42
2023-05-01T00:43:27.137Z,6.28
2023-05-01T00:44:27.110Z,6.35
2023-05-01T00:45:28.108Z,6.27
2023-05-01T00:46:27.172Z,6.38
2023-05-01T00:47:27.134Z,6.24
2023-05-01T00:48:27.083Z,6.36
2023-05-01T00:49:27.093Z,6.27
2023-05-01T00:50:27.068Z,6.33
2023-05-01T00:51:27.078Z,6.28
2023-05-01T00:52:27.057Z,6.26
2023-05-01T00:53:27.046Z,6.26
2023-05-01T00:54:27.040Z,6.26
2023-05-01T00:55:27.027Z,6.17
2023-05-01T00:56:27.035Z,6.26
2023-05-01T00:57:27.039Z,6.24
2023-05-01T00:58:27.023Z,6.14
2023-05-01T00:59:27.016Z,6.09
2023-05-01T01:00:27.006Z,6.14
2023-05-01T01:01:27.030Z,6.14
2023-05-01T01:02:26.982Z,6.09
2023-05-01T01:03:26.971Z,6.22
2023-05-01T01:04:27.031Z,6.08
2023-05-01T01:05:27.653Z,6.04
2023-05-01T01:06:26.993Z,6.09
2023-05-01T01:07:26.949Z,6.16
2023-05-01T01:08:26.924Z,6.04
2023-05-01T01:09:26.917Z,6.07
2023-05-01T01:10:26.909Z,6.12
2023-05-01T01:11:26.919Z,6.14
2023-05-01T01:12:26.910Z,6.07
2023-05-01T01:13:26.905Z,6.07
2023-05-01T01:14:26.899Z,6.12
2023-05-01T01:15:26.875Z,6.12
2023-05-01T01:16:27.213Z,6.16
2023-05-01T01:17:26.866Z,5.99
2023-05-01T01:18:26.860Z,6.09
2023-05-01T01:19:26.860Z,6.05
2023-05-01T01:20:26.848Z,6.02
2023-05-01T01:21:26.822Z,6.05
2023-05-01T01:22:26.834Z,6.04
2023-05-01T01:23:26.807Z,6.11
2023-05-01T01:24:26.817Z,6.07
2023-05-01T01:25:26.806Z,6.05
2023-05-01T01:26:26.787Z,6.01
2023-05-01T01:27:26.808Z,6.01
2023-05-01T01:28:26.767Z,6.04
2023-05-01T01:29:26.802Z,6.04
2023-05-01T01:30:26.759Z,6.01
2023-05-01T01:31:26.809Z,6.04
2023-05-01T01:32:26.797Z,6.11
2023-05-01T01:33:26.730Z,6.01
2023-05-01T01:34:26.744Z,6.05
2023-05-01T01:35:26.709Z,5.99
2023-05-01T01:36:26.712Z,6.05
2023-05-01T01:37:26.705Z,5.94
2023-05-01T01:38:26.708Z,6.08
2023-05-01T01:39:26.691Z,6.07
2023-05-01T01:40:26.670Z,6.07
2023-05-01T01:41:26.680Z,6.12
2023-05-01T01:42:26.686Z,6.05
2023-05-01T01:43:26.670Z,6.08
2023-05-01T01:44:26.645Z,5.99
2023-05-01T01:45:26.654Z,5.97
2023-05-01T01:46:26.686Z,6.02
2023-05-01T01:47:26.674Z,5.94
2023-05-01T01:48:26.616Z,6.02
2023-05-01T01:49:26.627Z,5.90
2023-05-01T01:50:26.615Z,5.90
2023-05-01T01:51:26.599Z,5.99
2023-05-01T01:52:26.610Z,5.84
2023-05-01T01:53:26.578Z,5.86
2023-05-01T01:54:26.577Z,5.93
2023-05-01T01:55:27.156Z,5.93
2023-05-01T01:56:26.546Z,5.91
2023-05-01T01:57:26.554Z,5.93
2023-05-01T01:58:26.653Z,5.89
2023-05-01T01:59:26.544Z,5.86
2023-05-01T02:00:27.147Z,5.84
2023-05-01T02:01:26.540Z,5.91
2023-05-01T02:02:26.697Z,5.98
2023-05-01T02:03:26.722Z,5.93
2023-05-01T02:04:26.509Z,5.97
2023-05-01T02:05:26.489Z,5.97
2023-05-01T02:06:26.510Z,5.89
2023-05-01T02:07:26.458Z,5.83
2023-05-01T02:08:26.441Z,5.83
2023-05-01T02:09:26.450Z,5.82
2023-05-01T02:10:26.451Z,5.83
2023-05-01T02:11:26.432Z,6.01
2023-05-01T02:12:26.464Z,5.83
2023-05-01T02:13:26.410Z,5.86
2023-05-01T02:14:26.425Z,5.87
2023-05-01T02:15:26.414Z,5.82
2023-05-01T02:16:26.430Z,5.82
2023-05-01T02:17:26.429Z,5.79
2023-05-01T02:18:26.373Z,5.76
2023-05-01T02:19:26.380Z,5.69
2023-05-01T02:20:26.368Z,5.73
2023-05-01T02:21:26.380Z,5.73
2023-05-01T02:22:26.350Z,5.76
2023-05-01T02:23:26.338Z,5.76
2023-05-01T02:24:26.432Z,5.80
2023-05-01T02:25:27.907Z,5.86
2023-05-01T02:26:26.334Z,5.68
2023-05-01T02:27:26.347Z,5.76
2023-05-01T02:28:26.305Z,5.62
2023-05-01T02:29:26.288Z,5.73
2023-05-01T02:30:26.309Z,5.75
2023-05-01T02:31:26.302Z,5.75
2023-05-01T02:32:26.345Z,5.76
2023-05-01T02:33:26.259Z,5.62
2023-05-01T02:34:26.247Z,5.80
2023-05-01T02:35:26.275Z,5.66
2023-05-01T02:36:26.240Z,5.69
2023-05-01T02:37:26.248Z,5.65
2023-05-01T02:38:26.238Z,5.71
2023-05-01T02:39:26.248Z,5.62
2023-05-01T02:40:26.219Z,5.57
2023-05-01T02:41:28.190Z,5.61
2023-05-01T02:42:26.192Z,5.65
2023-05-01T02:43:26.184Z,5.61
2023-05-01T02:44:26.192Z,5.57
2023-05-01T02:45:26.231Z,5.44
2023-05-01T02:46:26.235Z,5.50
2023-05-01T02:47:26.242Z,5.62
2023-05-01T02:48:26.188Z,5.51
2023-05-01T02:49:26.162Z,5.56
2023-05-01T02:50:26.138Z,5.50
2023-05-01T02:51:26.128Z,5.53
2023-05-01T02:52:26.192Z,5.54
2023-05-01T02:53:26.701Z,5.46
2023-05-01T02:54:26.126Z,5.39
2023-05-01T02:55:26.104Z,5.38
2023-05-01T02:56:26.100Z,5.36
2023-05-01T02:57:26.096Z,5.38
2023-05-01T02:58:27.081Z,5.30
2023-05-01T02:59:26.671Z,5.28
2023-05-01T03:00:26.088Z,5.35
2023-05-01T03:01:26.153Z,5.50
2023-05-01T03:02:26.045Z,5.35
2023-05-01T03:03:26.059Z,5.33
2023-05-01T03:04:26.057Z,5.25
2023-05-01T03:05:26.044Z,5.23
2023-05-01T03:06:26.042Z,5.18
2023-05-01T03:07:26.026Z,5.25
2023-05-01T03:08:26.010Z,5.20
2023-05-01T03:09:25.989Z,5.15
2023-05-01T03:10:25.992Z,5.15
2023-05-01T03:11:25.973Z,5.15
2023-05-01T03:12:25.974Z,5.08
2023-05-01T03:13:25.988Z,5.08
2023-05-01T03:14:25.964Z,5.07
2023-05-01T03:15:25.957Z,4.97
2023-05-01T03:16:25.996Z,5.00
2023-05-01T03:17:25.953Z,4.96
2023-05-01T03:18:25.934Z,4.96
2023-05-01T03:19:25.913Z,5.00
2023-05-01T03:20:26.571Z,4.97
2023-05-01T03:21:25.921Z,4.97
2023-05-01T03:22:25.888Z,4.92
2023-05-01T03:23:25.885Z,4.97
2023-05-01T03:24:25.886Z,4.87
2023-05-01T03:25:25.864Z,4.93
2023-05-01T03:26:25.868Z,4.94
2023-05-01T03:27:25.840Z,4.89
2023-05-01T03:28:25.915Z,4.97
2023-05-01T03:29:25.860Z,4.93
2023-05-01T03:30:25.841Z,4.87
2023-05-01T03:31:25.876Z,4.84
2023-05-01T03:32:26.061Z,4.86
2023-05-01T03:33:25.824Z,4.84
2023-05-01T03:34:25.798Z,4.86
2023-05-01T03:35:25.875Z,4.89
2023-05-01T03:36:25.777Z,5.04
2023-05-01T03:37:25.796Z,4.97
2023-05-01T03:38:25.756Z,4.93
2023-05-01T03:39:25.755Z,5.02
2023-05-01T03:40:26.752Z,4.92
2023-05-01T03:41:25.735Z,4.90
2023-05-01T03:42:25.739Z,4.93
2023-05-01T03:43:25.844Z,4.94
2023-05-01T03:44:25.726Z,4.87
2023-05-01T03:45:25.701Z,4.89
2023-05-01T03:46:25.707Z,4.92
2023-05-01T03:47:26.759Z,4.86
2023-05-01T03:48:25.724Z,4.94
2023-05-01T03:49:25.676Z,4.90
2023-05-01T03:50:25.679Z,4.93
2023-05-01T03:51:25.712Z,4.96
2023-05-01T03:52:25.702Z,5.02
2023-05-01T03:53:25.646Z,4.90
2023-05-01T03:54:25.658Z,4.90
2023-05-01T03:55:25.645Z,4.99
2023-05-01T03:56:25.728Z,4.99
2023-05-01T03:57:25.617Z,5.04
2023-05-01T03:58:25.603Z,4.99
2023-05-01T03:59:25.605Z,5.00
2023-05-01T04:00:25.592Z,5.04
2023-05-01T04:01:25.610Z,5.02
2023-05-01T04:02:25.719Z,5.08
2023-05-01T04:03:25.631Z,5.00
2023-05-01T04:04:26.228Z,5.05
2023-05-01T04:05:26.553Z,4.96
2023-05-01T04:06:25.577Z,4.97
2023-05-01T04:07:25.537Z,4.97
2023-05-01T04:08:25.533Z,4.97
2023-05-01T04:09:25.527Z,5.02
2023-05-01T04:10:25.513Z,4.96
2023-05-01T04:11:25.520Z,5.00
2023-05-01T04:12:25.499Z,5.05
2023-05-01T04:13:25.708Z,5.07
2023-05-01T04:14:26.519Z,5.05
2023-05-01T04:15:25.493Z,5.20
2023-05-01T04:16:25.529Z,5.08
2023-05-01T04:17:25.466Z,5.12
2023-05-01T04:18:25.458Z,5.10
2023-05-01T04:19:25.479Z,5.14
2023-05-01T04:20:25.446Z,5.11
2023-05-01T04:21:26.205Z,5.15
2023-05-01T04:22:25.477Z,5.07
2023-05-01T04:23:25.426Z,4.99
2023-05-01T04:24:25.444Z,5.05
2023-05-01T04:25:25.400Z,5.11
2023-05-01T04:26:28.224Z,5.18
2023-05-01T04:27:25.382Z,5.17
2023-05-01T04:28:25.424Z,5.14
2023-05-01T04:29:25.373Z,5.14
2023-05-01T04:30:25.366Z,5.20
2023-05-01T04:31:25.396Z,5.20
2023-05-01T04:32:25.354Z,5.30
2023-05-01T04:33:25.347Z,5.23
2023-05-01T04:34:25.325Z,5.35
2023-05-01T04:35:25.345Z,5.35
2023-05-01T04:36:27.182Z,5.38
2023-05-01T04:37:25.320Z,5.33
2023-05-01T04:38:25.304Z,5.44
2023-05-01T04:39:25.275Z,5.38
2023-05-01T04:40:26.112Z,5.53
2023-05-01T04:41:25.278Z,5.32
2023-05-01T04:42:25.271Z,5.30
2023-05-01T04:43:25.248Z,5.44
2023-05-01T04:44:25.289Z,5.38
2023-05-01T04:45:25.247Z,5.38
2023-05-01T04:46:25.229Z,5.41
2023-05-01T04:47:25.221Z,5.33
2023-05-01T04:48:25.216Z,5.50
2023-05-01T04:49:27.091Z,5.50
2023-05-01T04:50:25.219Z,5.48
2023-05-01T04:51:25.202Z,5.44
2023-05-01T04:52:25.187Z,5.61
2023-05-01T04:53:25.205Z,5.66
2023-05-01T04:54:26.182Z,5.79
2023-05-01T04:55:26.193Z,5.80
2023-05-01T04:56:25.162Z,5.84
2023-05-01T04:57:25.163Z,5.91
2023-05-01T04:58:25.137Z,5.87
2023-05-01T04:59:25.141Z,6.05
2023-05-01T05:00:25.133Z,6.01
2023-05-01T05:01:25.188Z,5.97
2023-05-01T05:02:25.161Z,6.11
2023-05-01T05:03:25.186Z,6.24
2023-05-01T05:04:25.161Z,6.28
2023-05-01T05:05:25.143Z,6.33
2023-05-01T05:06:25.170Z,6.46
2023-05-01T05:07:25.069Z,6.45
2023-05-01T05:08:25.053Z,6.51
2023-05-01T05:09:25.086Z,6.56
2023-05-01T05:10:25.063Z,6.69
2023-05-01T05:11:25.063Z,6.84
2023-05-01T05:12:25.061Z,6.87
2023-05-01T05:13:25.042Z,6.85
2023-05-01T05:14:25.693Z,6.99
2023-05-01T05:15:25.020Z,7.06
2023-05-01T05:16:25.037Z,7.20
2023-05-01T05:17:25.011Z,7.31
2023-05-01T05:18:25.032Z,7.38
2023-05-01T05:19:24.978Z,7.53
2023-05-01T05:20:24.982Z,7.79
2023-05-01T05:21:24.979Z,7.70
2023-05-01T05:22:24.968Z,7.85
2023-05-01T05:23:24.951Z,7.93
2023-05-01T05:24:24.951Z,7.95
2023-05-01T05:25:24.987Z,8.15
2023-05-01T05:26:24.947Z,8.19
2023-05-01T05:27:24.988Z,8.26
2023-05-01T05:28:24.905Z,8.45
2023-05-01T05:29:26.617Z,8.56
2023-05-01T05:30:24.894Z,8.70
2023-05-01T05:31:24.967Z,8.87
2023-05-01T05:32:24.967Z,9.06
2023-05-01T05:33:24.887Z,9.10
2023-05-01T05:34:25.741Z,9.32
2023-05-01T05:35:24.863Z,9.69
2023-05-01T05:36:24.848Z,9.98
2023-05-01T05:37:24.831Z,10.20
2023-05-01T05:38:24.862Z,10.46
2023-05-01T05:39:24.869Z,10.63
2023-05-01T05:40:24.827Z,10.81
2023-05-01T05:41:24.805Z,10.81
2023-05-01T05:42:24.850Z,10.99
2023-05-01T05:43:27.329Z,11.15
2023-05-01T05:44:25.772Z,10.99
2023-05-01T05:45:24.793Z,10.84
2023-05-01T05:46:24.817Z,11.00
2023-05-01T05:47:24.824Z,11.08
2023-05-01T05:48:24.804Z,11.17
2023-05-01T05:49:24.752Z,11.25
2023-05-01T05:50:25.632Z,11.36
2023-05-01T05:51:26.697Z,11.63
2023-05-01T05:52:24.736Z,11.81
2023-05-01T05:53:25.999Z,11.97
2023-05-01T05:55:32.397Z,11.90
2023-05-01T05:56:32.401Z,12.10
2023-05-01T05:57:33.507Z,12.18
2023-05-01T05:58:33.464Z,12.27
2023-05-01T05:59:33.471Z,12.18
2023-05-01T06:00:33.458Z,12.18
2023-05-01T06:01:35.166Z,12.15
2023-05-01T06:02:33.575Z,11.95
2023-05-01T06:03:33.750Z,12.03
2023-05-01T06:04:33.426Z,12.15
2023-05-01T06:05:33.454Z,12.02
2023-05-01T06:06:33.449Z,12.04
2023-05-01T06:07:33.428Z,12.06
2023-05-01T06:08:33.387Z,11.95
2023-05-01T06:10:42.469Z,11.72
2023-05-01T06:11:44.337Z,11.69
2023-05-01T06:12:45.545Z,11.55
2023-05-01T06:13:44.543Z,11.40
2023-05-01T06:14:43.539Z,11.60
2023-05-01T06:15:43.575Z,11.75
2023-05-01T06:16:44.074Z,12.00
2023-05-01T06:17:43.570Z,12.10
2023-05-01T06:18:45.674Z,12.12
2023-05-01T06:19:45.406Z,12.12
2023-05-01T06:20:43.492Z,12.31
2023-05-01T06:21:44.732Z,12.35
2023-05-01T06:22:43.483Z,12.60
2023-05-01T06:23:43.481Z,12.46
2023-05-01T06:25:16.380Z,12.73
2023-05-01T06:25:43.452Z,12.76
2023-05-01T06:26:43.457Z,12.75
2023-05-01T06:27:43.473Z,12.70
2023-05-01T06:28:43.433Z,12.62
2023-05-01T06:29:43.417Z,12.80
2023-05-01T06:30:43.426Z,12.86
2023-05-01T06:31:43.414Z,12.98
2023-05-01T06:32:43.443Z,12.95
2023-05-01T06:33:43.412Z,12.90
2023-05-01T06:34:43.377Z,13.03
2023-05-01T06:35:43.410Z,13.05
2023-05-01T06:36:43.363Z,13.20
2023-05-01T06:37:44.374Z,13.22
2023-05-01T06:38:43.344Z,13.46
2023-05-01T06:39:43.368Z,13.49
2023-05-01T06:40:43.337Z,13.74
2023-05-01T06:41:43.335Z,13.56
2023-05-01T06:42:43.317Z,13.35
2023-05-01T06:43:43.305Z,13.30
2023-05-01T06:44:43.299Z,13.19
2023-05-01T06:45:44.870Z,13.11
2023-05-01T06:46:43.306Z,12.95
2023-05-01T06:47:43.339Z,12.97
2023-05-01T06:48:43.276Z,12.95
2023-05-01T06:49:43.258Z,13.05
2023-05-01T06:50:43.306Z,13.09
2023-05-01T06:51:43.257Z,13.16
2023-05-01T06:52:44.953Z,13.37
2023-05-01T06:53:43.249Z,13.35
2023-05-01T06:54:43.238Z,13.54
2023-05-01T06:55:43.220Z,13.62
2023-05-01T06:56:43.204Z,13.75
2023-05-01T06:57:43.212Z,13.87
2023-05-01T06:58:43.188Z,14.07
2023-05-01T06:59:43.193Z,14.14
2023-05-01T07:00:43.185Z,14.20
2023-05-01T07:01:43.255Z,14.23
2023-05-01T07:02:43.290Z,14.41
2023-05-01T07:03:43.225Z,14.30
2023-05-01T07:04:43.976Z,14.36
2023-05-01T07:05:43.127Z,14.43
2023-05-01T07:06:43.144Z,14.30
2023-05-01T07:07:54.135Z,14.51
2023-05-01T07:08:44.135Z,14.73
2023-05-01T07:09:43.113Z,14.65
2023-05-01T07:10:43.109Z,14.59
2023-05-01T07:11:44.982Z,14.47
2023-05-01T07:12:43.091Z,14.70
2023-05-01T07:13:43.065Z,14.78
2023-05-01T07:14:43.071Z,14.92
2023-05-01T07:15:43.054Z,15.10
2023-05-01T07:16:43.105Z,15.39
2023-05-01T07:17:43.057Z,15.70
2023-05-01T07:18:43.032Z,15.80
2023-05-01T07:19:43.029Z,15.90
2023-05-01T07:20:43.033Z,15.94
2023-05-01T07:21:44.885Z,16.16
2023-05-01T07:22:43.009Z,16.41
2023-05-01T07:23:42.998Z,16.76
2023-05-01T07:24:45.908Z,16.99
2023-05-01T07:25:42.990Z,17.16
2023-05-01T07:26:42.969Z,17.57
2023-05-01T07:27:42.968Z,17.80
2023-05-01T07:28:42.953Z,18.05
2023-05-01T07:29:42.955Z,17.97
2023-05-01T07:30:42.937Z,18.25
2023-05-01T07:31:43.578Z,18.60
2023-05-01T07:32:42.958Z,18.52
2023-05-01T07:33:42.937Z,18.55
2023-05-01T07:34:42.915Z,18.52
2023-05-01T07:35:42.892Z,18.60
2023-05-01T07:36:42.900Z,18.89
2023-05-01T07:37:42.907Z,19.12
2023-05-01T07:38:42.892Z,19.34
2023-05-01T07:39:42.888Z,19.51
2023-05-01T07:40:42.876Z,19.76
2023-05-01T07:41:42.848Z,20.10
2023-05-01T07:42:42.835Z,20.22
2023-05-01T07:43:44.391Z,20.22
2023-05-01T07:44:42.853Z,20.36
2023-05-01T07:45:43.145Z,20.32
2023-05-01T07:46:42.815Z,20.14
2023-05-01T07:47:42.873Z,19.79
2023-05-01T07:48:42.813Z,19.81
2023-05-01T07:49:43.415Z,19.95
2023-05-01T07:50:42.785Z,19.84
2023-05-01T07:51:42.783Z,19.79
2023-05-01T07:52:42.815Z,19.86
2023-05-01T07:53:42.753Z,20.21
2023-05-01T07:54:42.760Z,20.65
2023-05-01T07:55:42.751Z,20.93
2023-05-01T07:56:42.734Z,21.03
2023-05-01T07:57:42.723Z,20.90
2023-05-01T07:58:42.726Z,20.81
2023-05-01T07:59:42.715Z,21.09
2023-05-01T08:00:42.720Z,21.02
2023-05-01T08:01:42.709Z,20.04
2023-05-01T08:02:42.792Z,19.55
2023-05-01T08:03:42.779Z,19.44
2023-05-01T08:04:42.684Z,19.34
2023-05-01T08:05:42.687Z,19.36
2023-05-01T08:06:42.694Z,19.37
2023-05-01T08:07:42.636Z,19.40
2023-05-01T08:08:42.678Z,19.29
2023-05-01T08:09:42.669Z,19.07
2023-05-01T08:10:42.619Z,18.65
2023-05-01T08:11:42.607Z,18.23
2023-05-01T08:12:42.624Z,17.86
2023-05-01T08:13:42.604Z,17.71
2023-05-01T08:14:42.605Z,17.78
2023-05-01T08:15:42.643Z,17.83
2023-05-01T08:16:42.633Z,17.86
2023-05-01T08:17:42.612Z,17.79
2023-05-01T08:18:42.627Z,17.71
2023-05-01T08:19:42.562Z,17.80
2023-05-01T08:20:42.558Z,17.86
2023-05-01T08:21:42.551Z,17.87
2023-05-01T08:22:43.548Z,17.97
2023-05-01T08:23:42.522Z,18.22
2023-05-01T08:24:42.510Z,18.52
2023-05-01T08:25:42.521Z,18.78
2023-05-01T08:26:42.516Z,19.15
2023-05-01T08:27:42.502Z,19.09
2023-05-01T08:28:42.496Z,19.04
2023-05-01T08:29:42.471Z,19.24
2023-05-01T08:30:43.479Z,19.58
2023-05-01T08:31:42.519Z,20.03
2023-05-01T08:32:42.512Z,20.19
2023-05-01T08:33:42.450Z,20.34
2023-05-01T08:34:42.464Z,20.52
2023-05-01T08:35:43.997Z,21.00
2023-05-01T08:36:42.485Z,21.40
2023-05-01T08:37:42.414Z,21.82
2023-05-01T08:38:42.417Z,21.96
2023-05-01T08:39:42.403Z,22.13
2023-05-01T08:40:42.388Z,21.72
2023-05-01T08:41:42.954Z,21.54
2023-05-01T08:42:42.423Z,21.43
2023-05-01T08:43:42.387Z,21.45
2023-05-01T08:44:42.377Z,21.37
2023-05-01T08:45:42.375Z,21.58
2023-05-01T08:46:42.411Z,21.75
2023-05-01T08:47:42.410Z,21.79
2023-05-01T08:48:42.335Z,21.85
2023-05-01T08:49:42.327Z,22.06
2023-05-01T08:50:42.324Z,22.23
2023-05-01T08:51:42.334Z,22.44
2023-05-01T08:52:44.008Z,22.47
2023-05-01T08:53:43.302Z,22.43
2023-05-01T08:54:42.293Z,22.43
2023-05-01T08:55:42.293Z,22.41
2023-05-01T08:56:42.289Z,22.29
2023-05-01T08:57:42.266Z,21.99
2023-05-01T08:58:42.293Z,21.64
2023-05-01T08:59:42.249Z,21.37
2023-05-01T09:00:42.306Z,21.05
2023-05-01T09:01:42.273Z,20.97
2023-05-01T09:02:42.259Z,20.99
2023-05-01T09:03:42.261Z,20.84
2023-05-01T09:04:42.229Z,20.87
2023-05-01T09:05:42.209Z,20.92
2023-05-01T09:06:42.268Z,20.81
2023-05-01T09:07:43.030Z,20.93
2023-05-01T09:08:42.173Z,21.00
2023-05-01T09:09:42.174Z,21.11
2023-05-01T09:10:42.173Z,21.12
2023-05-01T09:11:42.147Z,21.30
2023-05-01T09:12:42.172Z,21.24
2023-05-01T09:13:43.014Z,21.15
2023-05-01T09:14:42.164Z,21.05
2023-05-01T09:15:42.125Z,20.90
2023-05-01T09:16:43.043Z,20.92
2023-05-01T09:17:42.170Z,20.97
2023-05-01T09:18:42.118Z,20.93
2023-05-01T09:19:42.101Z,20.90
2023-05-01T09:20:42.103Z,21.00
2023-05-01T09:21:42.080Z,20.99
2023-05-01T09:22:42.088Z,20.99
2023-05-01T09:23:42.081Z,21.06
2023-05-01T09:24:42.052Z,21.14
2023-05-01T09:25:42.061Z,21.24
2023-05-01T09:26:42.069Z,21.43
2023-05-01T09:27:42.053Z,21.33
2023-05-01T09:28:44.011Z,21.24
2023-05-01T09:29:42.023Z,21.21
2023-05-01T09:30:42.022Z,21.18
2023-05-01T09:31:42.068Z,21.22
2023-05-01T09:32:42.669Z,20.65
2023-05-01T09:33:42.976Z,20.24
2023-05-01T09:34:41.994Z,20.36
2023-05-01T09:35:41.996Z,20.37
2023-05-01T09:36:41.979Z,20.67
2023-05-01T09:37:41.960Z,20.82
2023-05-01T09:38:42.059Z,20.96
2023-05-01T09:39:41.947Z,21.17
2023-05-01T09:40:41.929Z,21.25
2023-05-01T09:41:41.930Z,21.27
2023-05-01T09:42:41.942Z,21.32
2023-05-01T09:43:41.950Z,21.52
2023-05-01T09:44:41.924Z,21.57
2023-05-01T09:45:41.918Z,21.40
2023-05-01T09:46:41.932Z,21.27
2023-05-01T09:47:41.898Z,21.25
2023-05-01T09:48:41.882Z,21.32
2023-05-01T09:49:41.884Z,21.35
2023-05-01T09:50:41.863Z,21.30
2023-05-01T09:51:41.837Z,21.30
2023-05-01T09:52:41.850Z,21.32
2023-05-01T09:53:41.850Z,21.42
2023-05-01T09:54:41.853Z,21.58
2023-05-01T09:55:41.815Z,21.67
2023-05-01T09:56:41.821Z,21.88
2023-05-01T09:57:41.803Z,21.72
2023-05-01T09:58:41.835Z,21.73
2023-05-01T09:59:41.806Z,21.42
2023-05-01T10:00:41.777Z,21.12
2023-05-01T10:01:41.936Z,21.06
2023-05-01T10:02:42.664Z,20.78
2023-05-01T10:03:41.904Z,20.55
2023-05-01T10:04:41.747Z,20.55
2023-05-01T10:05:41.750Z,20.77
2023-05-01T10:06:41.801Z,21.06
2023-05-01T10:07:41.713Z,21.18
2023-05-01T10:08:41.726Z,21.35
2023-05-01T10:09:41.716Z,21.39
2023-05-01T10:10:41.808Z,21.60
2023-05-01T10:11:41.697Z,21.58
2023-05-01T10:12:43.535Z,21.51
2023-05-01T10:13:41.698Z,21.64
2023-05-01T10:14:41.660Z,21.77
2023-05-01T10:15:41.690Z,21.89
2023-05-01T10:16:41.721Z,21.66
2023-05-01T10:17:41.693Z,21.58
2023-05-01T10:18:41.718Z,21.50
2023-05-01T10:19:41.635Z,21.37
2023-05-01T10:20:41.641Z,21.50
2023-05-01T10:21:41.635Z,21.37
2023-05-01T10:22:41.601Z,21.60
2023-05-01T10:23:41.622Z,21.82
2023-05-01T10:24:41.625Z,22.00
2023-05-01T10:25:41.608Z,22.13
2023-05-01T10:26:41.640Z,22.13
2023-05-01T10:27:41.591Z,22.10
2023-05-01T10:28:41.571Z,22.35
2023-05-01T10:29:42.505Z,22.39
2023-05-01T10:30:41.556Z,22.26
2023-05-01T10:31:42.658Z,22.45
2023-05-01T10:32:42.588Z,22.08
2023-05-01T10:33:41.656Z,21.88
2023-05-01T10:34:41.567Z,21.98
2023-05-01T10:35:41.521Z,21.91
2023-05-01T10:36:41.535Z,22.06
2023-05-01T10:37:41.504Z,22.33
2023-05-01T10:38:41.506Z,22.23
2023-05-01T10:39:41.482Z,21.93
2023-05-01T10:40:41.488Z,21.80
2023-05-01T10:41:41.467Z,21.73
2023-05-01T10:42:41.549Z,21.70
2023-05-01T10:43:41.459Z,21.77
2023-05-01T10:44:41.448Z,21.93
2023-05-01T10:45:41.455Z,22.07
2023-05-01T10:46:41.460Z,22.22
2023-05-01T10:47:41.545Z,22.39
2023-05-01T10:48:41.421Z,22.63
2023-05-01T10:49:41.401Z,22.96
2023-05-01T10:50:42.073Z,22.87
2023-05-01T10:51:41.376Z,22.68
2023-05-01T10:52:41.480Z,22.33
2023-05-01T10:53:41.367Z,22.44
2023-05-01T10:54:41.371Z,22.60
2023-05-01T10:55:41.356Z,22.76
2023-05-01T10:56:41.359Z,22.91
2023-05-01T10:57:41.335Z,22.73
2023-05-01T10:58:42.059Z,22.69
2023-05-01T10:59:41.336Z,22.54
2023-05-01T11:00:41.974Z,22.23
2023-05-01T11:01:41.389Z,22.11
2023-05-01T11:02:41.361Z,22.28
2023-05-01T11:03:41.323Z,22.29
2023-05-01T11:04:41.301Z,22.54
2023-05-01T11:05:41.307Z,22.70
2023-05-01T11:06:41.339Z,22.66
2023-05-01T11:07:41.274Z,22.38
2023-05-01T11:08:44.073Z,22.29
2023-05-01T11:09:41.465Z,22.29
2023-05-01T11:10:41.252Z,22.25
2023-05-01T11:11:41.225Z,22.15
2023-05-01T11:12:42.982Z,21.66
2023-05-01T11:13:41.214Z,21.55
2023-05-01T11:14:41.213Z,21.60
2023-05-01T11:15:42.113Z,21.91
2023-05-01T11:16:41.260Z,21.96
2023-05-01T11:17:41.321Z,21.64
2023-05-01T11:18:41.182Z,21.85
2023-05-01T11:19:41.207Z,21.54
2023-05-01T11:20:41.158Z,21.62
2023-05-01T11:21:41.198Z,21.58
2023-05-01T11:22:41.147Z,21.62
2023-05-01T11:23:41.135Z,21.88
2023-05-01T11:24:41.131Z,22.06
2023-05-01T11:25:41.123Z,22.14
2023-05-01T11:26:41.129Z,22.06
2023-05-01T11:27:41.102Z,22.13
2023-05-01T11:28:41.105Z,22.17
2023-05-01T11:29:42.090Z,22.11
2023-05-01T11:30:41.098Z,22.29
2023-05-01T11:31:41.160Z,22.25
2023-05-01T11:32:41.106Z,22.23
2023-05-01T11:33:41.066Z,22.15
2023-05-01T11:34:41.047Z,22.15
2023-05-01T11:35:41.050Z,22.22
2023-05-01T11:36:41.039Z,22.43
2023-05-01T11:37:41.068Z,22.70
2023-05-01T11:38:41.049Z,22.91
2023-05-01T11:39:41.016Z,23.10
2023-05-01T11:40:40.996Z,22.88
2023-05-01T11:41:41.080Z,22.83
2023-05-01T11:42:41.011Z,22.55
2023-05-01T11:44:47.846Z,22.25
2023-05-01T11:45:47.862Z,22.33
2023-05-01T11:46:47.819Z,22.41
2023-05-01T11:47:47.843Z,22.53
2023-05-01T11:48:47.801Z,22.76
2023-05-01T11:49:47.800Z,22.99
2023-05-01T11:50:47.802Z,23.17
2023-05-01T11:51:49.689Z,23.17
2023-05-01T11:52:47.797Z,23.21
2023-05-01T11:53:47.770Z,23.39
2023-05-01T11:54:47.759Z,23.46
2023-05-01T11:55:47.747Z,23.51
2023-05-01T11:56:47.764Z,23.76
2023-05-01T11:57:47.752Z,23.84
2023-05-01T11:58:47.740Z,23.80
2023-05-01T11:59:48.833Z,23.96
2023-05-01T12:00:48.843Z,23.92
2023-05-01T12:01:48.829Z,23.86
2023-05-01T12:02:48.841Z,23.92
2023-05-01T12:03:48.856Z,24.02
2023-05-01T12:04:50.369Z,24.02
2023-05-01T12:05:48.840Z,24.06
2023-05-01T12:06:48.799Z,24.01
2023-05-01T12:07:48.741Z,23.99
2023-05-01T12:08:48.754Z,23.93
2023-05-01T12:09:48.738Z,23.73
2023-05-01T12:10:49.356Z,23.55
2023-05-01T12:11:50.526Z,23.55
2023-05-01T12:12:48.713Z,23.31
2023-05-01T12:13:48.709Z,23.03
2023-05-01T12:14:48.693Z,22.72
2023-05-01T12:15:48.692Z,22.66
2023-05-01T12:16:48.807Z,22.68
2023-05-01T12:17:49.359Z,22.80
2023-05-01T12:18:48.672Z,22.81
2023-05-01T12:19:48.653Z,22.78
2023-05-01T12:20:48.681Z,22.76
2023-05-01T12:21:48.665Z,22.87
2023-05-01T12:22:48.636Z,22.85
2023-05-01T12:23:48.634Z,23.09
2023-05-01T12:24:48.611Z,23.18
2023-05-01T12:25:48.608Z,23.12
2023-05-01T12:26:48.606Z,23.17
2023-05-01T12:27:48.606Z,22.68
2023-05-01T12:28:48.592Z,22.22
2023-05-01T12:29:48.565Z,21.55
2023-05-01T12:30:48.579Z,21.33
2023-05-01T12:31:48.680Z,21.66
2023-05-01T12:32:48.580Z,22.11
2023-05-01T12:33:48.565Z,22.36
2023-05-01T12:34:50.321Z,22.47
2023-05-01T12:35:48.533Z,22.69
2023-05-01T12:36:48.523Z,22.84
2023-05-01T12:37:48.514Z,22.65
2023-05-01T12:38:48.495Z,22.68
2023-05-01T12:39:50.413Z,22.70
2023-05-01T12:40:48.485Z,22.75
2023-05-01T12:41:48.495Z,22.72
2023-05-01T12:42:48.471Z,22.69
2023-05-01T12:43:48.458Z,22.44
2023-05-01T12:44:48.476Z,22.29
2023-05-01T12:45:51.310Z,22.14
2023-05-01T12:46:48.499Z,22.07
2023-05-01T12:47:48.459Z,22.13
2023-05-01T12:48:48.423Z,22.20
2023-05-01T12:49:48.408Z,22.45
2023-05-01T12:50:49.816Z,22.54
2023-05-01T12:51:48.404Z,22.62
2023-05-01T12:52:48.382Z,22.66
2023-05-01T12:53:48.383Z,22.65
2023-05-01T12:54:48.365Z,22.63
2023-05-01T12:55:48.386Z,22.59
2023-05-01T12:56:48.379Z,22.70
2023-05-01T12:57:48.340Z,22.69
2023-05-01T12:58:48.334Z,22.73
2023-05-01T12:59:48.321Z,22.63
2023-05-01T13:00:48.328Z,22.41
2023-05-01T13:01:48.408Z,22.29
2023-05-01T13:02:48.364Z,22.14
2023-05-01T13:03:48.323Z,21.72
2023-05-01T13:04:48.283Z,21.20
2023-05-01T13:05:48.271Z,21.06
2023-05-01T13:06:48.301Z,21.11
2023-05-01T13:07:48.298Z,21.22